Time,TemperatureF,DewpointF,PressureIn,WindDirection,WindDirectionDegrees,WindSpeedMPH,WindSpeedGustMPH,Humidity,HourlyPrecipIn,Conditions,Clouds,dailyrainin,SoftwareType,DateUTC
2013-12-17 00:03:00,40.1,5.3,25.51,WSW,253,4.9,5.8,23,0.00,,---,0.00,VWS V14.00,2013-12-17 07:03:00,
2013-12-17 00:08:00,39.9,5.1,25.51,WSW,253,4.9,5.4,23,0.00,,---,0.00,VWS V14.00,2013-12-17 07:08:00,
2013-12-17 00:13:00,39.7,5.0,25.51,WSW,253,4.0,4.9,23,0.00,,---,0.00,VWS V14.00,2013-12-17 07:13:00,
2013-12-17 00:18:00,39.4,4.7,25.51,WSW,253,4.0,4.0,23,0.00,,---,0.00,VWS V14.00,2013-12-17 07:18:00,
2013-12-17 00:23:00,39.0,5.3,25.51,WSW,253,2.7,2.7,24,0.00,,---,0.00,VWS V14.00,2013-12-17 07:23:00,
2013-12-17 00:28:00,38.8,5.2,25.51,WSW,253,3.6,4.0,24,0.00,,---,0.00,VWS V14.00,2013-12-17 07:28:00,
2013-12-17 00:33:00,38.8,5.2,25.51,WSW,253,5.4,5.4,24,0.00,,---,0.00,VWS V14.00,2013-12-17 07:33:00,
2013-12-17 00:38:00,38.7,5.0,25.51,WSW,253,4.0,4.0,24,0.00,,---,0.00,VWS V14.00,2013-12-17 07:38:00,
2013-12-17 00:43:00,38.1,4.5,25.51,WSW,253,3.6,4.0,24,0.00,,---,0.00,VWS V14.00,2013-12-17 07:43:00,
2013-12-17 00:48:00,37.8,4.2,25.51,WSW,253,3.6,3.6,24,0.00,,---,0.00,VWS V14.00,2013-12-17 07:48:00,
2013-12-17 00:53:00,37.6,4.1,25.51,WSW,253,3.6,3.6,24,0.00,,---,0.00,VWS V14.00,2013-12-17 07:53:00,
2013-12-17 00:58:00,37.4,3.9,25.51,WSW,253,3.6,3.6,24,0.00,,---,0.00,VWS V14.00,2013-12-17 07:58:00,
2013-12-17 01:03:00,37.4,3.9,25.51,WSW,253,5.4,5.4,24,0.00,,---,0.00,VWS V14.00,2013-12-17 08:03:00,
2013-12-17 01:08:00,37.6,4.1,25.51,WSW,253,4.0,4.9,24,0.00,,---,0.00,VWS V14.00,2013-12-17 08:08:00,
2013-12-17 01:13:00,37.8,4.2,25.51,WSW,253,0.0,0.0,24,0.00,,---,0.00,VWS V14.00,2013-12-17 08:13:00,
2013-12-17 01:18:00,38.3,4.7,25.51,WSW,253,0.0,0.0,24,0.00,,---,0.00,VWS V14.00,2013-12-17 08:18:00,
2013-12-17 01:23:00,37.9,4.4,25.51,WSW,253,5.4,5.4,24,0.00,,---,0.00,VWS V14.00,2013-12-17 08:23:00,
2013-12-17 01:28:00,37.8,4.2,25.51,WSW,253,4.0,4.5,24,0.00,,---,0.00,VWS V14.00,2013-12-17 08:28:00,
2013-12-17 01:33:00,38.1,4.5,25.51,WSW,253,4.0,4.0,24,0.00,,---,0.00,VWS V14.00,2013-12-17 08:33:00,
2013-12-17 01:38:00,38.1,4.5,25.51,WSW,253,5.4,5.4,24,0.00,,---,0.00,VWS V14.00,2013-12-17 08:38:00,
2013-12-17 01:43:00,37.9,4.4,25.51,WSW,253,5.4,6.3,24,0.00,,---,0.00,VWS V14.00,2013-12-17 08:43:00,
2013-12-17 01:48:00,37.9,4.4,25.51,WSW,253,4.9,4.9,24,0.00,,---,0.00,VWS V14.00,2013-12-17 08:48:00,
2013-12-17 01:53:00,38.1,4.5,25.51,WSW,253,4.9,4.9,24,0.00,,---,0.00,VWS V14.00,2013-12-17 08:53:00,
2013-12-17 01:58:00,37.8,4.2,25.51,WSW,253,4.0,4.5,24,0.00,,---,0.00,VWS V14.00,2013-12-17 08:58:00,
2013-12-17 02:03:00,37.4,3.9,25.51,WSW,253,4.5,5.4,24,0.00,,---,0.00,VWS V14.00,2013-12-17 09:03:00,
2013-12-17 02:09:00,37.4,3.9,25.51,WSW,253,4.9,4.9,24,0.00,,---,0.00,VWS V14.00,2013-12-17 09:09:00,
2013-12-17 02:14:00,37.4,3.9,25.51,WSW,253,4.5,4.5,24,0.00,,---,0.00,VWS V14.00,2013-12-17 09:14:00,
2013-12-17 02:19:00,37.4,3.9,25.51,WSW,253,0.0,0.0,24,0.00,,---,0.00,VWS V14.00,2013-12-17 09:19:00,
2013-12-17 02:24:00,37.4,3.9,25.51,WSW,253,0.0,0.0,24,0.00,,---,0.00,VWS V14.00,2013-12-17 09:24:00,
2013-12-17 02:29:00,37.0,3.6,25.51,WSW,253,0.0,0.0,24,0.00,,---,0.00,VWS V14.00,2013-12-17 09:29:00,
2013-12-17 02:34:00,36.9,3.5,25.51,WSW,253,5.4,5.4,24,0.00,,---,0.00,VWS V14.00,2013-12-17 09:34:00,
2013-12-17 02:39:00,37.0,6.2,25.51,WSW,253,5.4,5.8,27,0.00,,---,0.00,VWS V14.00,2013-12-17 09:39:00,
2013-12-17 02:44:00,37.8,4.2,25.54,WNW,295,3.1,5.4,24,0.00,,---,0.00,VWS V14.00,2013-12-17 09:44:00,
2013-12-17 02:49:00,39.0,5.3,25.54,West,267,5.4,5.8,24,0.00,,---,0.00,VWS V14.00,2013-12-17 09:49:00,
2013-12-17 02:54:00,38.7,5.0,25.54,West,269,5.4,6.3,24,0.00,,---,0.00,VWS V14.00,2013-12-17 09:54:00,
2013-12-17 02:59:00,39.0,5.3,25.51,West,270,5.4,5.4,24,0.00,,---,0.00,VWS V14.00,2013-12-17 09:59:00,
2013-12-17 03:04:00,40.5,5.6,25.51,West,270,4.5,4.5,23,0.00,,---,0.00,VWS V14.00,2013-12-17 10:04:00,
2013-12-17 03:09:00,39.9,5.1,25.51,West,270,5.4,5.4,23,0.00,,---,0.00,VWS V14.00,2013-12-17 10:09:00,
2013-12-17 03:14:00,40.1,5.3,25.51,WNW,302,5.4,6.3,23,0.00,,---,0.00,VWS V14.00,2013-12-17 10:14:00,
2013-12-17 03:19:00,41.4,6.4,25.51,WNW,302,3.6,5.4,23,0.00,,---,0.00,VWS V14.00,2013-12-17 10:19:00,
2013-12-17 03:24:00,42.4,7.3,25.51,WNW,302,4.9,4.9,23,0.00,,---,0.00,VWS V14.00,2013-12-17 10:24:00,
2013-12-17 03:29:00,42.8,7.6,25.54,WNW,302,4.9,5.4,23,0.00,,---,0.00,VWS V14.00,2013-12-17 10:29:00,
2013-12-17 03:34:00,42.6,7.4,25.54,WSW,256,6.3,6.3,23,0.00,,---,0.00,VWS V14.00,2013-12-17 10:34:00,
2013-12-17 03:39:00,41.2,6.2,25.54,West,260,3.6,3.6,23,0.00,,---,0.00,VWS V14.00,2013-12-17 10:39:00,
2013-12-17 03:44:00,40.5,5.6,25.51,West,260,2.7,3.6,23,0.00,,---,0.00,VWS V14.00,2013-12-17 10:44:00,
2013-12-17 03:49:00,40.3,5.4,25.51,West,260,3.1,3.6,23,0.00,,---,0.00,VWS V14.00,2013-12-17 10:49:00,
2013-12-17 03:54:00,40.3,5.4,25.51,West,261,4.0,4.0,23,0.00,,---,0.00,VWS V14.00,2013-12-17 10:54:00,
2013-12-17 03:59:00,39.7,5.0,25.51,West,261,3.6,3.6,23,0.00,,---,0.00,VWS V14.00,2013-12-17 10:59:00,
2013-12-17 04:04:00,38.7,5.0,25.51,West,260,2.2,4.0,24,0.00,,---,0.00,VWS V14.00,2013-12-17 11:04:00,
2013-12-17 04:09:00,38.3,4.7,25.51,West,260,5.4,5.4,24,0.00,,---,0.00,VWS V14.00,2013-12-17 11:09:00,
2013-12-17 04:14:00,37.9,4.4,25.51,West,260,2.7,4.0,24,0.00,,---,0.00,VWS V14.00,2013-12-17 11:14:00,
2013-12-17 04:19:00,37.8,4.2,25.51,West,260,2.7,2.7,24,0.00,,---,0.00,VWS V14.00,2013-12-17 11:19:00,
2013-12-17 04:24:00,37.2,3.8,25.51,West,260,3.1,3.6,24,0.00,,---,0.00,VWS V14.00,2013-12-17 11:24:00,
2013-12-17 04:29:00,36.9,3.5,25.51,West,260,0.0,0.0,24,0.00,,---,0.00,VWS V14.00,2013-12-17 11:29:00,
2013-12-17 04:34:00,36.7,3.3,25.51,West,260,3.6,3.6,24,0.00,,---,0.00,VWS V14.00,2013-12-17 11:34:00,
2013-12-17 04:39:00,36.3,3.0,25.51,West,260,4.0,4.0,24,0.00,,---,0.00,VWS V14.00,2013-12-17 11:39:00,
2013-12-17 04:44:00,36.3,5.6,25.51,West,260,4.9,5.4,27,0.00,,---,0.00,VWS V14.00,2013-12-17 11:44:00,
2013-12-17 04:49:00,36.7,5.9,25.51,West,260,4.0,4.0,27,0.00,,---,0.00,VWS V14.00,2013-12-17 11:49:00,
2013-12-17 04:54:00,36.7,5.9,25.51,West,260,4.0,4.0,27,0.00,,---,0.00,VWS V14.00,2013-12-17 11:54:00,
2013-12-17 04:59:00,36.7,5.9,25.51,West,260,5.8,5.8,27,0.00,,---,0.00,VWS V14.00,2013-12-17 11:59:00,
2013-12-17 05:04:00,36.9,6.0,25.51,West,260,5.4,5.4,27,0.00,,---,0.00,VWS V14.00,2013-12-17 12:04:00,
2013-12-17 05:09:00,37.4,5.7,25.51,West,260,4.0,4.0,26,0.00,,---,0.00,VWS V14.00,2013-12-17 12:09:00,
2013-12-17 05:14:00,37.4,3.9,25.51,West,260,2.7,3.1,24,0.00,,---,0.00,VWS V14.00,2013-12-17 12:14:00,
2013-12-17 05:19:00,37.0,3.6,25.51,West,260,0.0,0.0,24,0.00,,---,0.00,VWS V14.00,2013-12-17 12:19:00,
2013-12-17 05:24:00,36.5,3.2,25.51,West,260,0.0,0.0,24,0.00,,---,0.00,VWS V14.00,2013-12-17 12:24:00,
2013-12-17 05:29:00,36.1,5.4,25.51,West,260,5.4,5.4,27,0.00,,---,0.00,VWS V14.00,2013-12-17 12:29:00,
2013-12-17 05:34:00,36.1,5.4,25.51,West,260,5.4,6.3,27,0.00,,---,0.00,VWS V14.00,2013-12-17 12:34:00,
2013-12-17 05:39:00,36.3,5.6,25.51,West,260,3.6,4.0,27,0.00,,---,0.00,VWS V14.00,2013-12-17 12:39:00,
2013-12-17 05:44:00,36.7,5.9,25.54,West,262,5.4,5.4,27,0.00,,---,0.00,VWS V14.00,2013-12-17 12:44:00,
2013-12-17 05:49:00,37.6,5.8,25.54,West,262,5.8,5.8,26,0.00,,---,0.00,VWS V14.00,2013-12-17 12:49:00,
2013-12-17 05:54:00,37.9,4.4,25.54,WNW,299,4.0,4.0,24,0.00,,---,0.00,VWS V14.00,2013-12-17 12:54:00,
2013-12-17 05:59:00,38.7,5.0,25.54,WNW,299,4.0,4.0,24,0.00,,---,0.00,VWS V14.00,2013-12-17 12:59:00,
2013-12-17 06:04:00,38.1,4.5,25.54,WNW,298,4.9,4.9,24,0.00,,---,0.00,VWS V14.00,2013-12-17 13:04:00,
2013-12-17 06:09:00,37.0,3.6,25.54,West,267,4.5,5.4,24,0.00,,---,0.00,VWS V14.00,2013-12-17 13:09:00,
2013-12-17 06:14:00,36.1,5.4,25.54,West,267,3.1,4.0,27,0.00,,---,0.00,VWS V14.00,2013-12-17 13:14:00,
2013-12-17 06:19:00,35.6,4.9,25.54,West,267,3.6,4.0,27,0.00,,---,0.00,VWS V14.00,2013-12-17 13:19:00,
2013-12-17 06:24:00,35.4,4.8,25.54,West,267,4.9,4.9,27,0.00,,---,0.00,VWS V14.00,2013-12-17 13:24:00,
2013-12-17 06:29:00,35.2,6.9,25.54,West,267,4.9,5.4,30,0.00,,---,0.00,VWS V14.00,2013-12-17 13:29:00,
2013-12-17 06:34:00,35.6,6.5,25.54,West,267,5.4,5.4,29,0.00,,---,0.00,VWS V14.00,2013-12-17 13:34:00,
2013-12-17 06:39:00,35.8,6.7,25.54,West,267,4.0,4.9,29,0.00,,---,0.00,VWS V14.00,2013-12-17 13:39:00,
2013-12-17 06:44:00,36.1,5.4,25.54,West,267,4.0,4.0,27,0.00,,---,0.00,VWS V14.00,2013-12-17 13:44:00,
2013-12-17 06:50:00,36.3,5.6,25.54,West,267,4.9,4.9,27,0.00,,---,0.00,VWS V14.00,2013-12-17 13:50:00,
2013-12-17 07:00:00,36.1,5.4,25.54,West,267,3.6,3.6,27,0.00,,---,0.00,VWS V14.00,2013-12-17 14:00:00,
2013-12-17 07:06:00,36.0,5.2,25.54,West,267,3.6,4.0,27,0.00,,---,0.00,VWS V14.00,2013-12-17 14:06:00,
2013-12-17 07:11:00,35.2,4.6,25.54,West,267,0.0,0.0,27,0.00,,---,0.00,VWS V14.00,2013-12-17 14:11:00,
2013-12-17 07:16:00,34.5,6.3,25.54,West,267,4.0,4.0,30,0.00,,---,0.00,VWS V14.00,2013-12-17 14:16:00,
2013-12-17 07:21:00,34.5,6.3,25.54,West,267,5.4,5.8,30,0.00,,---,0.00,VWS V14.00,2013-12-17 14:21:00,
2013-12-17 07:26:00,35.2,6.9,25.54,West,267,4.5,4.5,30,0.00,,---,0.00,VWS V14.00,2013-12-17 14:26:00,
2013-12-17 07:31:00,37.0,7.8,25.54,West,267,3.1,3.6,29,0.00,,---,0.00,VWS V14.00,2013-12-17 14:31:00,
2013-12-17 07:33:00,37.2,7.9,25.54,West,267,4.0,4.0,29,0.00,,---,0.00,VWS V14.00,2013-12-17 14:33:00,
2013-12-17 07:38:00,38.5,6.6,25.54,West,267,3.1,3.6,26,0.00,,---,0.00,VWS V14.00,2013-12-17 14:38:00,
2013-12-17 07:43:00,39.4,7.4,25.54,West,267,2.7,2.7,26,0.00,,---,0.00,VWS V14.00,2013-12-17 14:43:00,
2013-12-17 07:48:00,40.1,8.0,25.54,West,267,0.0,0.0,26,0.00,,---,0.00,VWS V14.00,2013-12-17 14:48:00,
2013-12-17 07:53:00,41.2,8.9,25.54,West,267,0.0,0.0,26,0.00,,---,0.00,VWS V14.00,2013-12-17 14:53:00,
2013-12-17 07:58:00,42.4,10.0,25.54,West,267,0.0,0.0,26,0.00,,---,0.00,VWS V14.00,2013-12-17 14:58:00,
2013-12-17 08:03:00,44.4,10.8,25.54,West,267,0.0,0.0,25,0.00,,---,0.00,VWS V14.00,2013-12-17 15:03:00,
2013-12-17 08:08:00,46.4,11.6,25.54,West,268,0.0,0.0,24,0.00,,---,0.00,VWS V14.00,2013-12-17 15:08:00,
2013-12-17 08:13:00,48.0,11.0,25.54,West,268,0.0,0.0,22,0.00,,---,0.00,VWS V14.00,2013-12-17 15:13:00,
2013-12-17 08:18:00,49.1,10.9,25.54,SSW,193,0.0,0.0,21,0.00,,---,0.00,VWS V14.00,2013-12-17 15:18:00,
2013-12-17 08:23:00,49.8,11.5,25.54,NNW,339,0.0,0.0,21,0.00,,---,0.00,VWS V14.00,2013-12-17 15:23:00,
2013-12-17 08:28:00,50.2,11.8,25.54,NNW,341,0.0,0.0,21,0.00,,---,0.00,VWS V14.00,2013-12-17 15:28:00,
2013-12-17 08:33:00,50.5,12.1,25.54,NW,322,0.0,0.0,21,0.00,,---,0.00,VWS V14.00,2013-12-17 15:33:00,
2013-12-17 08:38:00,51.3,10.4,25.54,NW,322,0.0,0.0,19,0.00,,---,0.00,VWS V14.00,2013-12-17 15:38:00,
2013-12-17 08:43:00,51.6,10.7,25.54,NW,324,0.0,0.0,19,0.00,,---,0.00,VWS V14.00,2013-12-17 15:43:00,
2013-12-17 08:48:00,52.2,10.0,25.54,NW,324,0.0,0.0,18,0.00,,---,0.00,VWS V14.00,2013-12-17 15:48:00,
2013-12-17 08:54:00,52.3,10.1,25.54,North,0,4.0,4.0,18,0.00,,---,0.00,VWS V14.00,2013-12-17 15:54:00,
2013-12-17 08:59:00,52.3,10.1,25.54,NNW,343,0.0,2.7,18,0.00,,---,0.00,VWS V14.00,2013-12-17 15:59:00,
2013-12-17 09:04:00,52.5,10.2,25.54,NNW,339,5.4,5.8,18,0.00,,---,0.00,VWS V14.00,2013-12-17 16:04:00,
2013-12-17 09:09:00,52.7,10.4,25.54,NNW,339,4.9,5.8,18,0.00,,---,0.00,VWS V14.00,2013-12-17 16:09:00,
2013-12-17 09:14:00,52.9,10.6,25.57,NNW,329,5.4,6.3,18,0.00,,---,0.00,VWS V14.00,2013-12-17 16:14:00,
2013-12-17 09:19:00,53.2,10.9,25.57,North,0,0.0,0.0,18,0.00,,---,0.00,VWS V14.00,2013-12-17 16:19:00,
2013-12-17 09:24:00,54.1,11.6,25.57,NNW,337,4.0,6.3,18,0.00,,---,0.00,VWS V14.00,2013-12-17 16:24:00,
2013-12-17 09:29:00,54.5,11.9,25.57,NNW,341,3.1,3.6,18,0.00,,---,0.00,VWS V14.00,2013-12-17 16:29:00,
2013-12-17 09:34:00,55.0,14.7,25.57,NNE,18,2.7,4.9,20,0.00,,---,0.00,VWS V14.00,2013-12-17 16:34:00,
2013-12-17 09:39:00,55.6,11.5,25.57,NNW,346,3.6,5.8,17,0.00,,---,0.00,VWS V14.00,2013-12-17 16:39:00,
2013-12-17 09:44:00,55.9,11.8,25.57,North,353,2.7,5.4,17,0.00,,---,0.00,VWS V14.00,2013-12-17 16:44:00,
2013-12-17 09:49:00,56.1,11.9,25.57,NNW,336,3.6,5.4,17,0.00,,---,0.00,VWS V14.00,2013-12-17 16:49:00,
2013-12-17 09:54:00,56.3,12.1,25.57,North,353,4.0,4.0,17,0.00,,---,0.00,VWS V14.00,2013-12-17 16:54:00,
2013-12-17 09:59:00,56.7,16.1,25.57,North,7,3.1,3.1,20,0.00,,---,0.00,VWS V14.00,2013-12-17 16:59:00,
2013-12-17 10:04:00,57.6,15.6,25.57,NNW,341,4.0,4.0,19,0.00,,---,0.00,VWS V14.00,2013-12-17 17:04:00,
2013-12-17 10:09:00,57.9,15.9,25.57,North,6,2.7,2.7,19,0.00,,---,0.00,VWS V14.00,2013-12-17 17:09:00,
2013-12-17 10:14:00,58.5,16.4,25.57,NNW,333,2.7,4.0,19,0.00,,---,0.00,VWS V14.00,2013-12-17 17:14:00,
2013-12-17 10:19:00,58.5,16.4,25.57,NNW,346,4.0,4.0,19,0.00,,---,0.00,VWS V14.00,2013-12-17 17:19:00,
2013-12-17 10:24:00,58.5,16.4,25.57,North,11,3.6,3.6,19,0.00,,---,0.00,VWS V14.00,2013-12-17 17:24:00,
2013-12-17 10:29:00,58.6,16.5,25.57,North,9,4.0,4.0,19,0.00,,---,0.00,VWS V14.00,2013-12-17 17:29:00,
2013-12-17 10:34:00,58.8,16.7,25.57,NNW,348,3.1,3.6,19,0.00,,---,0.00,VWS V14.00,2013-12-17 17:34:00,
2013-12-17 10:39:00,58.8,16.7,25.57,North,350,4.9,5.4,19,0.00,,---,0.00,VWS V14.00,2013-12-17 17:39:00,
2013-12-17 10:44:00,59.0,16.8,25.57,North,9,2.7,4.0,19,0.00,,---,0.00,VWS V14.00,2013-12-17 17:44:00,
2013-12-17 10:49:00,59.2,17.0,25.57,NNW,341,4.9,5.4,19,0.00,,---,0.00,VWS V14.00,2013-12-17 17:49:00,
2013-12-17 10:54:00,59.5,17.3,25.57,North,0,3.6,3.6,19,0.00,,---,0.00,VWS V14.00,2013-12-17 17:54:00,
2013-12-17 10:59:00,59.9,17.6,25.57,North,7,2.7,5.8,19,0.00,,---,0.00,VWS V14.00,2013-12-17 17:59:00,
2013-12-17 11:04:00,60.6,18.2,25.57,North,357,0.0,0.0,19,0.00,,---,0.00,VWS V14.00,2013-12-17 18:04:00,
2013-12-17 11:09:00,60.8,18.3,25.57,NE,44,3.6,3.6,19,0.00,,---,0.00,VWS V14.00,2013-12-17 18:09:00,
2013-12-17 11:14:00,60.8,18.3,25.57,North,9,2.7,4.9,19,0.00,,---,0.00,VWS V14.00,2013-12-17 18:14:00,
2013-12-17 11:19:00,61.2,18.6,25.57,NNE,32,0.0,2.2,19,0.00,,---,0.00,VWS V14.00,2013-12-17 18:19:00,
2013-12-17 11:24:00,61.7,19.0,25.57,North,5,0.0,0.0,19,0.00,,---,0.00,VWS V14.00,2013-12-17 18:24:00,
2013-12-17 11:29:00,61.7,19.0,25.54,NNE,25,2.7,2.7,19,0.00,,---,0.00,VWS V14.00,2013-12-17 18:29:00,
2013-12-17 11:34:00,61.9,19.2,25.54,North,353,0.0,0.0,19,0.00,,---,0.00,VWS V14.00,2013-12-17 18:34:00,
2013-12-17 11:39:00,62.2,19.5,25.54,NW,321,0.0,2.2,19,0.00,,---,0.00,VWS V14.00,2013-12-17 18:39:00,
2013-12-17 11:44:00,62.6,18.5,25.54,NNE,31,0.0,0.0,18,0.00,,---,0.00,VWS V14.00,2013-12-17 18:44:00,
2013-12-17 11:49:00,63.1,19.0,25.54,North,349,3.1,3.6,18,0.00,,---,0.00,VWS V14.00,2013-12-17 18:49:00,
2013-12-17 11:54:00,63.3,19.1,25.54,NNW,336,2.7,3.6,18,0.00,,---,0.00,VWS V14.00,2013-12-17 18:54:00,
2013-12-17 11:59:00,63.7,19.4,25.54,NNW,343,3.1,4.9,18,0.00,,---,0.00,VWS V14.00,2013-12-17 18:59:00,
2013-12-17 12:04:00,64.4,20.0,25.54,NNW,343,0.0,0.0,18,0.00,,---,0.00,VWS V14.00,2013-12-17 19:04:00,
2013-12-17 12:09:00,65.1,20.6,25.54,NNW,341,0.0,0.0,18,0.00,,---,0.00,VWS V14.00,2013-12-17 19:09:00,
2013-12-17 12:14:00,65.3,20.7,25.51,NNW,341,0.0,0.0,18,0.00,,---,0.00,VWS V14.00,2013-12-17 19:14:00,
2013-12-17 12:19:00,65.8,21.2,25.51,NNW,341,0.0,0.0,18,0.00,,---,0.00,VWS V14.00,2013-12-17 19:19:00,
2013-12-17 12:24:00,66.0,21.3,25.51,NNE,25,2.7,2.7,18,0.00,,---,0.00,VWS V14.00,2013-12-17 19:24:00,
2013-12-17 12:29:00,66.0,21.3,25.51,NNW,338,3.6,3.6,18,0.00,,---,0.00,VWS V14.00,2013-12-17 19:29:00,
2013-12-17 12:34:00,66.2,20.1,25.51,NNW,336,0.0,0.0,17,0.00,,---,0.00,VWS V14.00,2013-12-17 19:34:00,
2013-12-17 12:39:00,66.4,20.3,25.51,NNW,341,0.0,3.6,17,0.00,,---,0.00,VWS V14.00,2013-12-17 19:39:00,
2013-12-17 12:44:00,66.4,20.3,25.51,NNW,335,3.6,4.9,17,0.00,,---,0.00,VWS V14.00,2013-12-17 19:44:00,
2013-12-17 12:49:00,66.6,20.4,25.51,NNW,334,4.9,6.3,17,0.00,,---,0.00,VWS V14.00,2013-12-17 19:49:00,
2013-12-17 12:54:00,66.7,20.6,25.51,NNE,33,0.0,0.0,17,0.00,,---,0.00,VWS V14.00,2013-12-17 19:54:00,
2013-12-17 12:59:00,66.7,20.6,25.51,NNE,31,2.7,2.7,17,0.00,,---,0.00,VWS V14.00,2013-12-17 19:59:00,
2013-12-17 13:04:00,67.1,20.9,25.51,North,353,0.0,0.0,17,0.00,,---,0.00,VWS V14.00,2013-12-17 20:04:00,
2013-12-17 13:09:00,67.6,21.3,25.51,NNW,337,0.0,0.0,17,0.00,,---,0.00,VWS V14.00,2013-12-17 20:09:00,
2013-12-17 13:14:00,68.0,21.6,25.48,NNW,339,3.1,3.1,17,0.00,,---,0.00,VWS V14.00,2013-12-17 20:14:00,
2013-12-17 13:19:00,68.0,21.6,25.48,NNE,19,4.0,4.0,17,0.00,,---,0.00,VWS V14.00,2013-12-17 20:19:00,
2013-12-17 13:24:00,68.2,21.7,25.48,NNW,338,3.1,5.8,17,0.00,,---,0.00,VWS V14.00,2013-12-17 20:24:00,
2013-12-17 13:30:00,68.4,21.9,25.48,NNW,343,2.7,3.1,17,0.00,,---,0.00,VWS V14.00,2013-12-17 20:30:00,
2013-12-17 13:35:00,68.5,22.0,25.48,NW,321,3.6,6.3,17,0.00,,---,0.00,VWS V14.00,2013-12-17 20:35:00,
2013-12-17 13:40:00,68.5,22.0,25.48,NNE,17,4.0,5.4,17,0.00,,---,0.00,VWS V14.00,2013-12-17 20:40:00,
2013-12-17 13:45:00,68.9,22.3,25.48,NNE,28,4.5,4.5,17,0.00,,---,0.00,VWS V14.00,2013-12-17 20:45:00,
2013-12-17 13:50:00,68.9,22.3,25.48,NNE,17,2.2,2.7,17,0.00,,---,0.00,VWS V14.00,2013-12-17 20:50:00,
2013-12-17 13:55:00,68.7,22.2,25.48,NE,35,6.3,6.3,17,0.00,,---,0.00,VWS V14.00,2013-12-17 20:55:00,
2013-12-17 14:00:00,68.7,22.2,25.48,NE,40,0.0,0.0,17,0.00,,---,0.00,VWS V14.00,2013-12-17 21:00:00,
2013-12-17 14:05:00,68.7,22.2,25.48,NNE,26,4.0,4.0,17,0.00,,---,0.00,VWS V14.00,2013-12-17 21:05:00,
2013-12-17 14:10:00,68.7,22.2,25.48,NNW,337,0.0,3.1,17,0.00,,---,0.00,VWS V14.00,2013-12-17 21:10:00,
2013-12-17 14:15:00,68.7,22.2,25.48,NNE,16,3.6,4.0,17,0.00,,---,0.00,VWS V14.00,2013-12-17 21:15:00,
2013-12-17 14:20:00,69.1,22.5,25.48,NNW,327,5.4,5.4,17,0.00,,---,0.00,VWS V14.00,2013-12-17 21:20:00,
2013-12-17 14:25:00,69.1,22.5,25.48,NNW,333,0.0,3.6,17,0.00,,---,0.00,VWS V14.00,2013-12-17 21:25:00,
2013-12-17 14:30:00,68.9,22.3,25.48,NNW,340,3.1,4.0,17,0.00,,---,0.00,VWS V14.00,2013-12-17 21:30:00,
2013-12-17 14:35:00,69.3,22.6,25.48,NW,322,0.0,0.0,17,0.00,,---,0.00,VWS V14.00,2013-12-17 21:35:00,
2013-12-17 14:40:00,69.1,22.5,25.48,North,3,0.0,0.0,17,0.00,,---,0.00,VWS V14.00,2013-12-17 21:40:00,
2013-12-17 14:45:00,69.4,22.8,25.48,North,5,0.0,0.0,17,0.00,,---,0.00,VWS V14.00,2013-12-17 21:45:00,
2013-12-17 14:50:00,69.6,22.9,25.48,North,10,0.0,0.0,17,0.00,,---,0.00,VWS V14.00,2013-12-17 21:50:00,
2013-12-17 14:55:00,70.0,23.2,25.48,ENE,59,0.0,2.2,17,0.00,,---,0.00,VWS V14.00,2013-12-17 21:55:00,
2013-12-17 15:00:00,69.8,23.1,25.45,NW,315,0.0,0.0,17,0.00,,---,0.00,VWS V14.00,2013-12-17 22:00:00,
2013-12-17 15:05:00,70.0,23.2,25.45,NW,316,0.0,0.0,17,0.00,,---,0.00,VWS V14.00,2013-12-17 22:05:00,
2013-12-17 15:10:00,69.8,23.1,25.45,NW,315,0.0,0.0,17,0.00,,---,0.00,VWS V14.00,2013-12-17 22:10:00,
2013-12-17 15:15:00,69.4,22.8,25.45,NW,317,2.7,2.7,17,0.00,,---,0.00,VWS V14.00,2013-12-17 22:15:00,
2013-12-17 15:16:00,69.4,22.8,25.45,NW,317,2.7,4.0,17,0.00,,---,0.00,VWS V14.00,2013-12-17 22:16:00,
2013-12-17 15:21:00,69.1,22.5,25.45,NW,317,0.0,3.1,17,0.00,,---,0.00,VWS V14.00,2013-12-17 22:21:00,
2013-12-17 15:26:00,69.1,22.5,25.45,North,5,0.0,0.0,17,0.00,,---,0.00,VWS V14.00,2013-12-17 22:26:00,
2013-12-17 15:31:00,69.3,22.6,25.45,NE,54,0.0,0.0,17,0.00,,---,0.00,VWS V14.00,2013-12-17 22:31:00,
2013-12-17 15:36:00,69.1,22.5,25.45,NE,39,0.0,0.0,17,0.00,,---,0.00,VWS V14.00,2013-12-17 22:36:00,
2013-12-17 15:41:00,69.1,22.5,25.45,NNE,27,0.0,2.2,17,0.00,,---,0.00,VWS V14.00,2013-12-17 22:41:00,
2013-12-17 15:46:00,69.1,22.5,25.45,North,2,0.0,0.0,17,0.00,,---,0.00,VWS V14.00,2013-12-17 22:46:00,
2013-12-17 15:51:00,69.4,22.8,25.45,NE,54,3.1,3.1,17,0.00,,---,0.00,VWS V14.00,2013-12-17 22:51:00,
2013-12-17 15:56:00,69.1,22.5,25.45,NE,42,0.0,0.0,17,0.00,,---,0.00,VWS V14.00,2013-12-17 22:56:00,
2013-12-17 16:01:00,68.7,22.2,25.45,NE,38,0.0,0.0,17,0.00,,---,0.00,VWS V14.00,2013-12-17 23:01:00,
2013-12-17 16:06:00,68.7,22.2,25.45,NNE,26,0.0,0.0,17,0.00,,---,0.00,VWS V14.00,2013-12-17 23:06:00,
2013-12-17 16:11:00,68.5,22.0,25.45,NNE,26,0.0,0.0,17,0.00,,---,0.00,VWS V14.00,2013-12-17 23:11:00,
2013-12-17 16:16:00,68.4,21.9,25.45,NNE,26,0.0,0.0,17,0.00,,---,0.00,VWS V14.00,2013-12-17 23:16:00,
2013-12-17 16:21:00,68.4,21.9,25.45,NNE,26,0.0,0.0,17,0.00,,---,0.00,VWS V14.00,2013-12-17 23:21:00,
2013-12-17 16:26:00,67.8,21.5,25.45,NNE,26,0.0,0.0,17,0.00,,---,0.00,VWS V14.00,2013-12-17 23:26:00,
2013-12-17 16:32:00,66.4,20.3,25.45,WNW,288,0.0,0.0,17,0.00,,---,0.00,VWS V14.00,2013-12-17 23:32:00,
2013-12-17 16:37:00,63.0,18.8,25.45,West,259,0.0,0.0,18,0.00,,---,0.00,VWS V14.00,2013-12-17 23:37:00,
2013-12-17 16:42:00,60.1,15.1,25.45,West,259,0.0,0.0,17,0.00,,---,0.00,VWS V14.00,2013-12-17 23:42:00,
2013-12-17 16:47:00,58.1,13.5,25.45,West,259,0.0,0.0,17,0.00,,---,0.00,VWS V14.00,2013-12-17 23:47:00,
2013-12-17 16:52:00,56.7,12.4,25.45,West,260,0.0,0.0,17,0.00,,---,0.00,VWS V14.00,2013-12-17 23:52:00,
2013-12-17 16:57:00,55.8,11.6,25.45,West,260,0.0,0.0,17,0.00,,---,0.00,VWS V14.00,2013-12-17 23:57:00,
2013-12-17 17:02:00,54.9,12.2,25.45,West,260,4.9,4.9,18,0.00,,---,0.00,VWS V14.00,2013-12-18 00:02:00,
2013-12-17 17:07:00,54.0,11.4,25.45,West,260,5.4,5.4,18,0.00,,---,0.00,VWS V14.00,2013-12-18 00:07:00,
2013-12-17 17:12:00,53.2,10.9,25.45,West,259,5.8,5.8,18,0.00,,---,0.00,VWS V14.00,2013-12-18 00:12:00,
2013-12-17 17:17:00,52.5,10.2,25.45,West,259,5.4,5.4,18,0.00,,---,0.00,VWS V14.00,2013-12-18 00:17:00,
2013-12-17 17:22:00,51.8,9.7,25.45,West,259,4.9,5.4,18,0.00,,---,0.00,VWS V14.00,2013-12-18 00:22:00,
2013-12-17 17:27:00,51.4,10.6,25.45,West,259,5.8,5.8,19,0.00,,---,0.00,VWS V14.00,2013-12-18 00:27:00,
2013-12-17 17:32:00,51.1,10.3,25.45,West,259,5.4,5.4,19,0.00,,---,0.00,VWS V14.00,2013-12-18 00:32:00,
2013-12-17 17:37:00,50.5,9.8,25.45,West,259,5.4,5.4,19,0.00,,---,0.00,VWS V14.00,2013-12-18 00:37:00,
2013-12-17 17:42:00,50.0,9.4,25.45,West,259,5.8,5.8,19,0.00,,---,0.00,VWS V14.00,2013-12-18 00:42:00,
2013-12-17 17:47:00,49.5,8.9,25.45,West,259,5.4,5.4,19,0.00,,---,0.00,VWS V14.00,2013-12-18 00:47:00,
2013-12-17 17:52:00,48.7,8.3,25.45,West,259,4.9,4.9,19,0.00,,---,0.00,VWS V14.00,2013-12-18 00:52:00,
2013-12-17 17:57:00,48.2,7.9,25.45,West,259,5.4,5.4,19,0.00,,---,0.00,VWS V14.00,2013-12-18 00:57:00,
2013-12-17 18:02:00,47.8,7.6,25.45,West,259,4.9,4.9,19,0.00,,---,0.00,VWS V14.00,2013-12-18 01:02:00,
2013-12-17 18:07:00,47.8,7.6,25.45,West,259,4.9,5.4,19,0.00,,---,0.00,VWS V14.00,2013-12-18 01:07:00,
2013-12-17 18:12:00,47.8,7.6,25.45,West,259,4.9,4.9,19,0.00,,---,0.00,VWS V14.00,2013-12-18 01:12:00,
2013-12-17 18:17:00,47.7,7.4,25.45,West,259,4.9,5.8,19,0.00,,---,0.00,VWS V14.00,2013-12-18 01:17:00,
2013-12-17 18:22:00,47.8,7.6,25.45,West,259,4.9,5.4,19,0.00,,---,0.00,VWS V14.00,2013-12-18 01:22:00,
2013-12-17 18:27:00,47.8,7.6,25.48,West,259,5.4,5.8,19,0.00,,---,0.00,VWS V14.00,2013-12-18 01:27:00,
2013-12-17 18:32:00,47.7,7.4,25.48,West,259,5.8,5.8,19,0.00,,---,0.00,VWS V14.00,2013-12-18 01:32:00,
2013-12-17 18:37:00,47.3,7.1,25.48,West,259,5.4,6.3,19,0.00,,---,0.00,VWS V14.00,2013-12-18 01:37:00,
2013-12-17 18:42:00,47.1,7.0,25.48,West,259,5.4,5.4,19,0.00,,---,0.00,VWS V14.00,2013-12-18 01:42:00,
2013-12-17 18:48:00,47.1,7.0,25.48,West,259,4.9,5.4,19,0.00,,---,0.00,VWS V14.00,2013-12-18 01:48:00,
2013-12-17 18:53:00,46.8,6.7,25.48,West,259,4.5,4.9,19,0.00,,---,0.00,VWS V14.00,2013-12-18 01:53:00,
2013-12-17 18:58:00,46.2,7.4,25.48,West,259,5.4,5.4,20,0.00,,---,0.00,VWS V14.00,2013-12-18 01:58:00,
2013-12-17 19:03:00,46.0,7.2,25.48,West,259,5.4,5.8,20,0.00,,---,0.00,VWS V14.00,2013-12-18 02:03:00,
2013-12-17 19:08:00,46.0,7.2,25.48,West,259,4.9,5.4,20,0.00,,---,0.00,VWS V14.00,2013-12-18 02:08:00,
2013-12-17 19:13:00,46.0,7.2,25.48,West,259,5.4,5.8,20,0.00,,---,0.00,VWS V14.00,2013-12-18 02:13:00,
2013-12-17 19:18:00,46.0,7.2,25.48,West,259,6.3,6.3,20,0.00,,---,0.00,VWS V14.00,2013-12-18 02:18:00,
2013-12-17 19:23:00,46.4,6.4,25.48,West,259,6.3,6.3,19,0.00,,---,0.00,VWS V14.00,2013-12-18 02:23:00,
2013-12-17 19:28:00,46.4,6.4,25.48,West,259,4.0,6.3,19,0.00,,---,0.00,VWS V14.00,2013-12-18 02:28:00,
2013-12-17 19:33:00,46.0,7.2,25.48,West,259,5.8,6.3,20,0.00,,---,0.00,VWS V14.00,2013-12-18 02:33:00,
2013-12-17 19:38:00,46.2,7.4,25.48,West,259,5.4,5.8,20,0.00,,---,0.00,VWS V14.00,2013-12-18 02:38:00,
2013-12-17 19:43:00,46.6,6.5,25.48,West,259,5.4,6.3,19,0.00,,---,0.00,VWS V14.00,2013-12-18 02:43:00,
2013-12-17 19:48:00,46.6,6.5,25.48,West,259,5.4,6.3,19,0.00,,---,0.00,VWS V14.00,2013-12-18 02:48:00,
2013-12-17 19:53:00,46.6,6.5,25.48,West,259,5.4,5.8,19,0.00,,---,0.00,VWS V14.00,2013-12-18 02:53:00,
2013-12-17 19:58:00,46.6,6.5,25.48,West,259,6.3,6.3,19,0.00,,---,0.00,VWS V14.00,2013-12-18 02:58:00,
2013-12-17 20:03:00,46.4,6.4,25.48,West,259,6.3,6.3,19,0.00,,---,0.00,VWS V14.00,2013-12-18 03:03:00,
2013-12-17 20:08:00,46.2,7.4,25.48,West,259,5.4,5.4,20,0.00,,---,0.00,VWS V14.00,2013-12-18 03:08:00,
2013-12-17 20:13:00,45.9,7.1,25.48,West,259,3.6,4.0,20,0.00,,---,0.00,VWS V14.00,2013-12-18 03:13:00,
2013-12-17 20:18:00,45.5,6.8,25.48,West,259,5.4,5.8,20,0.00,,---,0.00,VWS V14.00,2013-12-18 03:18:00,
2013-12-17 20:23:00,45.5,6.8,25.48,West,259,4.0,4.9,20,0.00,,---,0.00,VWS V14.00,2013-12-18 03:23:00,
2013-12-17 20:28:00,45.9,7.1,25.48,West,259,4.0,4.9,20,0.00,,---,0.00,VWS V14.00,2013-12-18 03:28:00,
2013-12-17 20:33:00,45.9,7.1,25.48,West,259,3.6,4.5,20,0.00,,---,0.00,VWS V14.00,2013-12-18 03:33:00,
2013-12-17 20:38:00,46.0,7.2,25.48,West,259,4.0,4.0,20,0.00,,---,0.00,VWS V14.00,2013-12-18 03:38:00,
2013-12-17 20:43:00,46.0,7.2,25.48,West,259,5.4,5.8,20,0.00,,---,0.00,VWS V14.00,2013-12-18 03:43:00,
2013-12-17 20:48:00,46.0,7.2,25.48,West,259,6.3,6.3,20,0.00,,---,0.00,VWS V14.00,2013-12-18 03:48:00,
2013-12-17 20:53:00,45.9,7.1,25.48,West,259,5.8,6.3,20,0.00,,---,0.00,VWS V14.00,2013-12-18 03:53:00,
2013-12-17 20:58:00,45.9,7.1,25.48,West,259,5.8,5.8,20,0.00,,---,0.00,VWS V14.00,2013-12-18 03:58:00,
2013-12-17 21:03:00,46.0,7.2,25.48,West,259,5.8,5.8,20,0.00,,---,0.00,VWS V14.00,2013-12-18 04:03:00,
2013-12-17 21:08:00,46.0,7.2,25.48,West,259,5.8,6.3,20,0.00,,---,0.00,VWS V14.00,2013-12-18 04:08:00,
2013-12-17 21:13:00,45.5,6.8,25.48,WSW,258,5.8,6.3,20,0.00,,---,0.00,VWS V14.00,2013-12-18 04:13:00,
2013-12-17 21:18:00,45.3,6.6,25.48,WSW,258,4.9,5.4,20,0.00,,---,0.00,VWS V14.00,2013-12-18 04:18:00,
2013-12-17 21:23:00,45.3,6.6,25.48,WSW,258,4.9,5.8,20,0.00,,---,0.00,VWS V14.00,2013-12-18 04:23:00,
2013-12-17 21:28:00,45.5,6.8,25.48,WSW,258,6.3,6.3,20,0.00,,---,0.00,VWS V14.00,2013-12-18 04:28:00,
2013-12-17 21:33:00,45.7,6.9,25.48,WSW,258,5.4,5.4,20,0.00,,---,0.00,VWS V14.00,2013-12-18 04:33:00,
2013-12-17 21:38:00,45.7,6.9,25.48,WSW,258,5.4,5.4,20,0.00,,---,0.00,VWS V14.00,2013-12-18 04:38:00,
2013-12-17 21:43:00,45.5,6.8,25.48,WSW,258,5.4,5.4,20,0.00,,---,0.00,VWS V14.00,2013-12-18 04:43:00,
2013-12-17 21:48:00,46.0,7.2,25.48,WSW,258,5.4,5.4,20,0.00,,---,0.00,VWS V14.00,2013-12-18 04:48:00,
2013-12-17 21:53:00,46.6,6.5,25.48,WSW,258,4.5,4.9,19,0.00,,---,0.00,VWS V14.00,2013-12-18 04:53:00,
2013-12-17 21:58:00,46.4,6.4,25.48,WSW,258,3.6,3.6,19,0.00,,---,0.00,VWS V14.00,2013-12-18 04:58:00,
2013-12-17 22:01:00,46.0,7.2,25.48,WSW,258,3.1,3.1,20,0.00,,---,0.00,VWS V14.00,2013-12-18 05:01:00,
2013-12-17 22:02:00,46.0,7.2,25.48,WSW,258,3.1,3.1,20,0.00,,---,0.00,VWS V14.00,2013-12-18 05:02:00,
2013-12-17 22:04:00,45.7,6.9,25.48,WSW,258,4.0,4.0,20,0.00,,---,0.00,VWS V14.00,2013-12-18 05:04:00,
2013-12-17 22:05:00,45.5,6.8,25.48,WSW,258,2.2,3.1,20,0.00,,---,0.00,VWS V14.00,2013-12-18 05:05:00,
2013-12-17 22:10:00,44.8,6.2,25.48,WSW,258,3.6,3.6,20,0.00,,---,0.00,VWS V14.00,2013-12-18 05:10:00,
2013-12-17 22:15:00,44.2,5.7,25.48,WSW,258,2.2,2.7,20,0.00,,---,0.00,VWS V14.00,2013-12-18 05:15:00,
2013-12-17 22:20:00,44.1,5.6,25.48,WSW,258,0.0,0.0,20,0.00,,---,0.00,VWS V14.00,2013-12-18 05:20:00,
2013-12-17 22:26:00,43.7,5.3,25.48,WSW,258,0.0,0.0,20,0.00,,---,0.00,VWS V14.00,2013-12-18 05:26:00,
2013-12-17 22:31:00,44.2,5.7,25.48,WSW,258,0.0,0.0,20,0.00,,---,0.00,VWS V14.00,2013-12-18 05:31:00,
2013-12-17 22:36:00,45.3,6.6,25.48,WSW,258,0.0,0.0,20,0.00,,---,0.00,VWS V14.00,2013-12-18 05:36:00,
2013-12-17 22:41:00,45.7,6.9,25.48,WSW,258,3.6,4.0,20,0.00,,---,0.00,VWS V14.00,2013-12-18 05:41:00,
2013-12-17 22:46:00,45.7,6.9,25.48,WSW,258,4.0,4.0,20,0.00,,---,0.00,VWS V14.00,2013-12-18 05:46:00,
2013-12-17 22:51:00,44.8,6.2,25.48,WSW,258,3.1,4.0,20,0.00,,---,0.00,VWS V14.00,2013-12-18 05:51:00,
2013-12-17 22:56:00,44.1,5.6,25.48,WSW,258,0.0,0.0,20,0.00,,---,0.00,VWS V14.00,2013-12-18 05:56:00,
2013-12-17 23:01:00,43.5,5.1,25.48,WSW,258,3.6,4.0,20,0.00,,---,0.00,VWS V14.00,2013-12-18 06:01:00,
2013-12-17 23:06:00,43.3,5.0,25.48,WSW,258,4.9,4.9,20,0.00,,---,0.00,VWS V14.00,2013-12-18 06:06:00,
2013-12-17 23:11:00,43.3,5.0,25.48,WSW,258,3.6,3.6,20,0.00,,---,0.00,VWS V14.00,2013-12-18 06:11:00,
2013-12-17 23:16:00,43.3,5.0,25.45,WSW,258,4.9,5.8,20,0.00,,---,0.00,VWS V14.00,2013-12-18 06:16:00,
2013-12-17 23:21:00,43.0,4.7,25.45,WSW,258,4.0,4.0,20,0.00,,---,0.00,VWS V14.00,2013-12-18 06:21:00,
2013-12-17 23:26:00,42.8,4.5,25.45,WSW,258,4.0,4.0,20,0.00,,---,0.00,VWS V14.00,2013-12-18 06:26:00,
2013-12-17 23:31:00,42.6,5.4,25.45,WSW,258,3.1,3.6,21,0.00,,---,0.00,VWS V14.00,2013-12-18 06:31:00,
2013-12-17 23:36:00,42.4,5.3,25.45,WSW,258,3.1,3.6,21,0.00,,---,0.00,VWS V14.00,2013-12-18 06:36:00,
2013-12-17 23:41:00,42.4,5.3,25.45,WSW,258,2.7,2.7,21,0.00,,---,0.00,VWS V14.00,2013-12-18 06:41:00,
2013-12-17 23:46:00,42.3,5.1,25.45,WSW,258,0.0,0.0,21,0.00,,---,0.00,VWS V14.00,2013-12-18 06:46:00,
2013-12-17 23:51:00,41.9,4.8,25.45,West,260,4.9,4.9,21,0.00,,---,0.00,VWS V14.00,2013-12-18 06:51:00,
2013-12-17 23:56:00,42.3,5.1,25.45,West,260,2.7,2.7,21,0.00,,---,0.00,VWS V14.00,2013-12-18 06:56:00,